SBFL/FLN METAR and TAF weather

Enter ICAO airport designator
Station Type Date Time Source
SBFL METAR 2019/10/15 09:00 UTC NOAA

SBFL 150900Z 19008KT 9999 SCT030 BKN050 17/15 Q1022


Station Type Date Time Source
SBFL Decoded METAR 2019/10/15 09:00 UTC NOAA

Florianopolis Aeroporto , Brazil (SBFL) 27-40S 048-33W 5M
Oct 15, 2019 - 05:00 AM EDT / 2019.10.15 0900 UTC
Wind: from the S (190 degrees) at 9 MPH (8 KT):0
Visibility: greater than 7 mile(s):0
Sky conditions: mostly cloudy
Temperature: 62 F (17 C)
Dew Point: 59 F (15 C)
Relative Humidity: 88%
Pressure (altimeter): 30.18 in. Hg (1022 hPa)
ob: SBFL 150900Z 19008KT 9999 SCT030 BKN050 17/15 Q1022
cycle: 9

Station Type Date Time Source
SBFL TAF 2019/10/15 06:09 UTC NOAA

TAF SBFL 150245Z 1506/1606 17010KT 9000 BKN015 TN16/1508Z TX18/1516Z PROB40
TEMPO 1506/1510 7000 BKN012
BECMG 1512/1514 14007KT 9999 NSW BKN020
BECMG 1600/1602 22005KT
RMK PDW

Example: see airport list